ACA838 KMIA-KGSO
Flight info
| Callsign | ACA838 |
|---|---|
| Flight time | 1h 53m |
| Altitude | 37000 |
| Route | ALTNN2 DUCEN Q87 VIYAP ISUZO SAV GANTS |
| Aircraft | A339/H-SADE1E2E3GHIJ3J5M1P2RWXY/LB2D1 |
Departure
| Time | 2026-04-18 03:53 |
|---|---|
| Airport | Miami International Airport (KMIA) |
Arrival
| Time | 2026-04-18 05:47 |
|---|---|
| Airport | Piedmont Triad International Airport (KGSO) |
| Time | Latitude | Longitude | Altitude | Speed | Heading |
|---|---|---|---|---|---|
| 2026-04-18 03:26 | 25.79399 | -80.28406 | 20 ft | 0 kts | 3° |
| 2026-04-18 03:42 | 25.79393 | -80.28407 | 20 ft | 2 kts | 359° |
| 2026-04-18 03:43 | 25.79378 | -80.28404 | 20 ft | 2 kts | 341° |
| 2026-04-18 03:43 | 25.79364 | -80.28397 | 20 ft | 2 kts | 328° |
| 2026-04-18 03:43 | 25.79353 | -80.28387 | 20 ft | 2 kts | 314° |
| 2026-04-18 03:43 | 25.79343 | -80.28374 | 20 ft | 2 kts | 300° |
| 2026-04-18 03:44 | 25.79337 | -80.28360 | 20 ft | 2 kts | 286° |
| 2026-04-18 03:44 | 25.79334 | -80.28343 | 20 ft | 2 kts | 272° |
| 2026-04-18 03:44 | 25.79335 | -80.28327 | 20 ft | 2 kts | 263° |
| 2026-04-18 03:44 | 25.79337 | -80.28310 | 20 ft | 2 kts | 265° |
| 2026-04-18 03:45 | 25.79337 | -80.28303 | 20 ft | 0 kts | 266° |
| 2026-04-18 03:46 | 25.79337 | -80.28305 | 20 ft | 1 kts | 265° |
| 2026-04-18 03:46 | 25.79336 | -80.28326 | 20 ft | 4 kts | 265° |
| 2026-04-18 03:47 | 25.79332 | -80.28374 | 20 ft | 8 kts | 265° |
| 2026-04-18 03:47 | 25.79326 | -80.28455 | 20 ft | 11 kts | 265° |
| 2026-04-18 03:47 | 25.79322 | -80.28548 | 20 ft | 12 kts | 272° |
| 2026-04-18 03:47 | 25.79345 | -80.28648 | 20 ft | 13 kts | 297° |
| 2026-04-18 03:48 | 25.79393 | -80.28743 | 21 ft | 14 kts | 299° |
| 2026-04-18 03:48 | 25.79443 | -80.28842 | 21 ft | 14 kts | 299° |
| 2026-04-18 03:48 | 25.79496 | -80.28946 | 20 ft | 16 kts | 299° |
| 2026-04-18 03:48 | 25.79553 | -80.29057 | 20 ft | 16 kts | 299° |
| 2026-04-18 03:49 | 25.79610 | -80.29171 | 20 ft | 17 kts | 300° |
| 2026-04-18 03:49 | 25.79671 | -80.29288 | 20 ft | 17 kts | 300° |
| 2026-04-18 03:49 | 25.79734 | -80.29409 | 20 ft | 18 kts | 299° |
| 2026-04-18 03:49 | 25.79796 | -80.29533 | 20 ft | 18 kts | 299° |
| 2026-04-18 03:50 | 25.79859 | -80.29656 | 20 ft | 18 kts | 299° |
| 2026-04-18 03:50 | 25.79912 | -80.29777 | 20 ft | 12 kts | 293° |
| 2026-04-18 03:50 | 25.79947 | -80.29866 | 20 ft | 13 kts | 292° |
| 2026-04-18 03:50 | 25.79976 | -80.29968 | 20 ft | 14 kts | 286° |
| 2026-04-18 03:51 | 25.79992 | -80.30029 | 20 ft | 0 kts | 286° |
| 2026-04-18 03:51 | 25.79996 | -80.30044 | 20 ft | 3 kts | 286° |
| 2026-04-18 03:51 | 25.80006 | -80.30082 | 20 ft | 7 kts | 286° |
| 2026-04-18 03:51 | 25.80040 | -80.30128 | 20 ft | 8 kts | 340° |
| 2026-04-18 03:52 | 25.80072 | -80.30102 | 20 ft | 2 kts | 99° |
| 2026-04-18 03:52 | 25.80071 | -80.30076 | 20 ft | 4 kts | 88° |
| 2026-04-18 03:52 | 25.80077 | -80.29946 | 20 ft | 44 kts | 87° |
| 2026-04-18 03:52 | 25.80102 | -80.29346 | 20 ft | 109 kts | 87° |
| 2026-04-18 03:53 | 25.80146 | -80.28301 | 21 ft | 161 kts | 88° |
| 2026-04-18 03:53 | 25.80200 | -80.26990 | 490 ft | 170 kts | 85° |
| 2026-04-18 03:53 | 25.80273 | -80.25743 | 1268 ft | 159 kts | 86° |
| 2026-04-18 03:53 | 25.80318 | -80.24576 | 1976 ft | 154 kts | 86° |
| 2026-04-18 03:54 | 25.80365 | -80.23338 | 2384 ft | 170 kts | 87° |
| 2026-04-18 03:54 | 25.80418 | -80.21957 | 2771 ft | 187 kts | 87° |
| 2026-04-18 03:54 | 25.80476 | -80.20451 | 3154 ft | 205 kts | 86° |
| 2026-04-18 03:54 | 25.80609 | -80.18814 | 3561 ft | 223 kts | 74° |
| 2026-04-18 03:55 | 25.81350 | -80.17255 | 4018 ft | 241 kts | 48° |
| 2026-04-18 03:55 | 25.82761 | -80.16148 | 4513 ft | 259 kts | 21° |
| 2026-04-18 03:55 | 25.84567 | -80.15841 | 5187 ft | 268 kts | 2° |
| 2026-04-18 03:55 | 25.86430 | -80.15784 | 5927 ft | 273 kts | 2° |
| 2026-04-18 03:56 | 25.88321 | -80.15751 | 6683 ft | 276 kts | 358° |
| 2026-04-18 03:56 | 25.90245 | -80.16016 | 7439 ft | 279 kts | 348° |
| 2026-04-18 03:56 | 25.92125 | -80.16593 | 8173 ft | 282 kts | 344° |
| 2026-04-18 03:56 | 25.93991 | -80.17249 | 8862 ft | 285 kts | 343° |
| 2026-04-18 03:57 | 25.97824 | -80.18563 | 10227 ft | 290 kts | 347° |
| 2026-04-18 03:57 | 25.99814 | -80.19019 | 10631 ft | 303 kts | 352° |
| 2026-04-18 03:57 | 26.01966 | -80.19304 | 10926 ft | 319 kts | 355° |
| 2026-04-18 03:58 | 26.04252 | -80.19541 | 11389 ft | 330 kts | 355° |
| 2026-04-18 03:58 | 26.06519 | -80.19769 | 12061 ft | 332 kts | 355° |
| 2026-04-18 03:58 | 26.08843 | -80.20005 | 12736 ft | 335 kts | 355° |
| 2026-04-18 03:58 | 26.11166 | -80.20242 | 13400 ft | 337 kts | 355° |
| 2026-04-18 03:59 | 26.13502 | -80.20481 | 14032 ft | 341 kts | 355° |
| 2026-04-18 03:59 | 26.15862 | -80.20724 | 14694 ft | 343 kts | 354° |
| 2026-04-18 03:59 | 26.18248 | -80.20969 | 15363 ft | 345 kts | 354° |
| 2026-04-18 03:59 | 26.20672 | -80.21214 | 16021 ft | 347 kts | 355° |
| 2026-04-18 04:00 | 26.23068 | -80.21429 | 16673 ft | 349 kts | 355° |
| 2026-04-18 04:00 | 26.25496 | -80.21642 | 17299 ft | 351 kts | 354° |
| 2026-04-18 04:00 | 26.27936 | -80.21858 | 17929 ft | 354 kts | 354° |
| 2026-04-18 04:00 | 26.30390 | -80.22079 | 18559 ft | 356 kts | 354° |
| 2026-04-18 04:01 | 26.32875 | -80.22302 | 19193 ft | 358 kts | 354° |
| 2026-04-18 04:01 | 26.35390 | -80.22529 | 19808 ft | 361 kts | 354° |
| 2026-04-18 04:01 | 26.37872 | -80.22752 | 20434 ft | 362 kts | 354° |
| 2026-04-18 04:01 | 26.40418 | -80.23004 | 21045 ft | 364 kts | 354° |
| 2026-04-18 04:02 | 26.42925 | -80.23264 | 21643 ft | 366 kts | 354° |
| 2026-04-18 04:02 | 26.45471 | -80.23529 | 22229 ft | 368 kts | 354° |
| 2026-04-18 04:02 | 26.48011 | -80.23792 | 22828 ft | 369 kts | 354° |
| 2026-04-18 04:02 | 26.50572 | -80.24056 | 23403 ft | 371 kts | 354° |
| 2026-04-18 04:03 | 26.53132 | -80.24319 | 23964 ft | 373 kts | 353° |
| 2026-04-18 04:03 | 26.55716 | -80.24593 | 24517 ft | 374 kts | 352° |
| 2026-04-18 04:03 | 26.58325 | -80.24983 | 25052 ft | 377 kts | 351° |
| 2026-04-18 04:03 | 26.60928 | -80.25414 | 25590 ft | 379 kts | 350° |
| 2026-04-18 04:04 | 26.63516 | -80.25845 | 26104 ft | 381 kts | 350° |
| 2026-04-18 04:04 | 26.66161 | -80.26289 | 26587 ft | 383 kts | 350° |
| 2026-04-18 04:04 | 26.68803 | -80.26817 | 27067 ft | 385 kts | 346° |
| 2026-04-18 04:04 | 26.71390 | -80.27525 | 27536 ft | 386 kts | 343° |
| 2026-04-18 04:05 | 26.73955 | -80.28428 | 27995 ft | 388 kts | 339° |
| 2026-04-18 04:05 | 26.76505 | -80.29468 | 28454 ft | 390 kts | 339° |
| 2026-04-18 04:05 | 26.79064 | -80.30534 | 28900 ft | 391 kts | 338° |
| 2026-04-18 04:05 | 26.81589 | -80.31591 | 29311 ft | 394 kts | 338° |
| 2026-04-18 04:06 | 26.84183 | -80.32679 | 29739 ft | 395 kts | 338° |
| 2026-04-18 04:06 | 26.86755 | -80.33758 | 30162 ft | 396 kts | 338° |
| 2026-04-18 04:06 | 26.89319 | -80.34834 | 30572 ft | 397 kts | 338° |
| 2026-04-18 04:06 | 26.91926 | -80.35927 | 30967 ft | 399 kts | 338° |
| 2026-04-18 04:07 | 26.94543 | -80.37022 | 31192 ft | 404 kts | 338° |
| 2026-04-18 04:07 | 26.97187 | -80.38095 | 31330 ft | 411 kts | 339° |
| 2026-04-18 04:07 | 26.99912 | -80.39189 | 31564 ft | 415 kts | 339° |
| 2026-04-18 04:07 | 27.02620 | -80.40276 | 31945 ft | 416 kts | 339° |
| 2026-04-18 04:08 | 27.05340 | -80.41370 | 32471 ft | 413 kts | 338° |
| 2026-04-18 04:08 | 27.08023 | -80.42451 | 33031 ft | 409 kts | 338° |
| 2026-04-18 04:08 | 27.10699 | -80.43556 | 33553 ft | 406 kts | 337° |
| 2026-04-18 04:08 | 27.13297 | -80.44698 | 34097 ft | 403 kts | 336° |
| 2026-04-18 04:09 | 27.15899 | -80.45858 | 34644 ft | 399 kts | 337° |
| 2026-04-18 04:09 | 27.18472 | -80.47004 | 35172 ft | 396 kts | 337° |
| 2026-04-18 04:09 | 27.21028 | -80.48139 | 35510 ft | 397 kts | 337° |
| 2026-04-18 04:09 | 27.23620 | -80.49291 | 35801 ft | 398 kts | 337° |
| 2026-04-18 04:10 | 27.26203 | -80.50436 | 36071 ft | 400 kts | 337° |
| 2026-04-18 04:10 | 27.28790 | -80.51581 | 36331 ft | 401 kts | 337° |
| 2026-04-18 04:10 | 27.31399 | -80.52737 | 36580 ft | 403 kts | 337° |
| 2026-04-18 04:10 | 27.34003 | -80.53889 | 36835 ft | 404 kts | 337° |
| 2026-04-18 04:11 | 27.36632 | -80.55037 | 37023 ft | 406 kts | 338° |
| 2026-04-18 04:11 | 27.41978 | -80.57169 | 37047 ft | 406 kts | 339° |
| 2026-04-18 04:12 | 27.47284 | -80.59272 | 37051 ft | 406 kts | 339° |
| 2026-04-18 04:12 | 27.52606 | -80.61388 | 37056 ft | 406 kts | 339° |
| 2026-04-18 04:13 | 27.57933 | -80.63508 | 37054 ft | 406 kts | 339° |
| 2026-04-18 04:13 | 27.63269 | -80.65633 | 37056 ft | 406 kts | 338° |
| 2026-04-18 04:14 | 27.68589 | -80.67757 | 37050 ft | 406 kts | 338° |
| 2026-04-18 04:14 | 27.73956 | -80.69900 | 37047 ft | 406 kts | 338° |
| 2026-04-18 04:15 | 27.79280 | -80.72027 | 37050 ft | 406 kts | 338° |
| 2026-04-18 04:15 | 27.84572 | -80.74146 | 37061 ft | 406 kts | 338° |
| 2026-04-18 04:16 | 27.89920 | -80.76288 | 37053 ft | 406 kts | 338° |
| 2026-04-18 04:16 | 27.95266 | -80.78433 | 37047 ft | 406 kts | 338° |
| 2026-04-18 04:17 | 28.00582 | -80.80567 | 37051 ft | 406 kts | 338° |
| 2026-04-18 04:17 | 28.05902 | -80.82707 | 37051 ft | 406 kts | 338° |
| 2026-04-18 04:18 | 28.11216 | -80.84844 | 37055 ft | 406 kts | 338° |
| 2026-04-18 04:18 | 28.16547 | -80.86990 | 37051 ft | 406 kts | 338° |
| 2026-04-18 04:19 | 28.21892 | -80.89146 | 37048 ft | 405 kts | 338° |
| 2026-04-18 04:19 | 28.27212 | -80.91293 | 37043 ft | 405 kts | 338° |
| 2026-04-18 04:20 | 28.32546 | -80.93449 | 37047 ft | 406 kts | 338° |
| 2026-04-18 04:20 | 28.37855 | -80.95596 | 37049 ft | 405 kts | 338° |
| 2026-04-18 04:21 | 28.43173 | -80.97750 | 37052 ft | 405 kts | 338° |
| 2026-04-18 04:21 | 28.48492 | -80.99907 | 37049 ft | 405 kts | 337° |
| 2026-04-18 04:22 | 28.53833 | -81.02074 | 37039 ft | 406 kts | 337° |
| 2026-04-18 04:22 | 28.59148 | -81.04237 | 37035 ft | 406 kts | 338° |
| 2026-04-18 04:23 | 28.64466 | -81.06400 | 37044 ft | 407 kts | 338° |
| 2026-04-18 04:23 | 28.69802 | -81.08573 | 37053 ft | 408 kts | 338° |
| 2026-04-18 04:24 | 28.75183 | -81.10764 | 37049 ft | 408 kts | 338° |
| 2026-04-18 04:24 | 28.80528 | -81.12944 | 37054 ft | 407 kts | 337° |
| 2026-04-18 04:25 | 28.85870 | -81.15128 | 37053 ft | 407 kts | 338° |
| 2026-04-18 04:25 | 28.91181 | -81.17300 | 37053 ft | 407 kts | 338° |
| 2026-04-18 04:26 | 28.96539 | -81.19493 | 37060 ft | 407 kts | 337° |
| 2026-04-18 04:26 | 29.01854 | -81.21674 | 37059 ft | 408 kts | 338° |
| 2026-04-18 04:27 | 29.07203 | -81.23870 | 37060 ft | 408 kts | 338° |
| 2026-04-18 04:27 | 29.12543 | -81.26064 | 37062 ft | 409 kts | 337° |
| 2026-04-18 04:28 | 29.17938 | -81.28284 | 37065 ft | 409 kts | 337° |
| 2026-04-18 04:28 | 29.23327 | -81.30285 | 37066 ft | 410 kts | 341° |
| 2026-04-18 04:29 | 29.28921 | -81.31742 | 37053 ft | 413 kts | 346° |
| 2026-04-18 04:29 | 29.34632 | -81.32610 | 37051 ft | 416 kts | 350° |
| 2026-04-18 04:30 | 29.40450 | -81.33018 | 37053 ft | 417 kts | 352° |
| 2026-04-18 04:30 | 29.46244 | -81.33368 | 37054 ft | 418 kts | 352° |
| 2026-04-18 04:31 | 29.52043 | -81.33710 | 37051 ft | 418 kts | 352° |
| 2026-04-18 04:31 | 29.57876 | -81.34057 | 37049 ft | 418 kts | 352° |
| 2026-04-18 04:32 | 29.63661 | -81.34399 | 37046 ft | 418 kts | 352° |
| 2026-04-18 04:32 | 29.69508 | -81.34744 | 37040 ft | 418 kts | 352° |
| 2026-04-18 04:33 | 29.75308 | -81.35086 | 37040 ft | 419 kts | 352° |
| 2026-04-18 04:33 | 29.81160 | -81.35433 | 37043 ft | 419 kts | 352° |
| 2026-04-18 04:34 | 29.86976 | -81.35779 | 37048 ft | 418 kts | 352° |
| 2026-04-18 04:34 | 29.92820 | -81.36126 | 37050 ft | 419 kts | 352° |
| 2026-04-18 04:35 | 29.98647 | -81.36473 | 37052 ft | 419 kts | 352° |
| 2026-04-18 04:35 | 30.04465 | -81.36820 | 37051 ft | 419 kts | 352° |
| 2026-04-18 04:36 | 30.10349 | -81.37172 | 37050 ft | 420 kts | 352° |
| 2026-04-18 04:36 | 30.16193 | -81.37521 | 37047 ft | 420 kts | 352° |
| 2026-04-18 04:37 | 30.22012 | -81.37867 | 37047 ft | 420 kts | 352° |
| 2026-04-18 04:37 | 30.27878 | -81.38217 | 37049 ft | 421 kts | 352° |
| 2026-04-18 04:38 | 30.33726 | -81.38568 | 37046 ft | 421 kts | 351° |
| 2026-04-18 04:38 | 30.39566 | -81.38920 | 37052 ft | 421 kts | 352° |
| 2026-04-18 04:39 | 30.45426 | -81.39271 | 37052 ft | 421 kts | 352° |
| 2026-04-18 04:39 | 30.51263 | -81.39590 | 37048 ft | 421 kts | 352° |
| 2026-04-18 04:40 | 30.57146 | -81.39896 | 37046 ft | 422 kts | 352° |
| 2026-04-18 04:40 | 30.63007 | -81.40203 | 37044 ft | 422 kts | 352° |
| 2026-04-18 04:41 | 30.68861 | -81.40514 | 37041 ft | 421 kts | 352° |
| 2026-04-18 04:41 | 30.74745 | -81.40827 | 37037 ft | 422 kts | 352° |
| 2026-04-18 04:42 | 30.80642 | -81.41139 | 37036 ft | 422 kts | 352° |
| 2026-04-18 04:42 | 30.86523 | -81.41453 | 37029 ft | 422 kts | 352° |
| 2026-04-18 04:43 | 30.92379 | -81.41765 | 37022 ft | 422 kts | 352° |
| 2026-04-18 04:43 | 30.98260 | -81.42078 | 37028 ft | 424 kts | 352° |
| 2026-04-18 04:44 | 31.04147 | -81.42394 | 37026 ft | 424 kts | 352° |
| 2026-04-18 04:44 | 31.10043 | -81.42709 | 37030 ft | 423 kts | 352° |
| 2026-04-18 04:45 | 31.15933 | -81.43024 | 37031 ft | 423 kts | 352° |
| 2026-04-18 04:45 | 31.21858 | -81.43074 | 37030 ft | 427 kts | 356° |
| 2026-04-18 04:46 | 31.27821 | -81.42455 | 37033 ft | 433 kts | 1° |
| 2026-04-18 04:46 | 31.33788 | -81.41151 | 37031 ft | 437 kts | 6° |
| 2026-04-18 04:47 | 31.39728 | -81.39522 | 37029 ft | 437 kts | 6° |
| 2026-04-18 04:47 | 31.45671 | -81.37870 | 37027 ft | 437 kts | 6° |
| 2026-04-18 04:48 | 31.51582 | -81.36225 | 37021 ft | 438 kts | 6° |
| 2026-04-18 04:48 | 31.57547 | -81.34565 | 37013 ft | 438 kts | 6° |
| 2026-04-18 04:49 | 31.63461 | -81.32916 | 37017 ft | 439 kts | 6° |
| 2026-04-18 04:49 | 31.69413 | -81.31255 | 37018 ft | 438 kts | 6° |
| 2026-04-18 04:50 | 31.75356 | -81.29594 | 37021 ft | 438 kts | 6° |
| 2026-04-18 04:50 | 31.81282 | -81.27935 | 37017 ft | 438 kts | 6° |
| 2026-04-18 04:51 | 31.87112 | -81.25540 | 37021 ft | 448 kts | 15° |
| 2026-04-18 04:51 | 31.92864 | -81.22662 | 37019 ft | 448 kts | 15° |
| 2026-04-18 04:52 | 31.98591 | -81.19800 | 37021 ft | 448 kts | 15° |
| 2026-04-18 04:52 | 32.04333 | -81.16946 | 37021 ft | 448 kts | 15° |
| 2026-04-18 04:53 | 32.10077 | -81.14099 | 37019 ft | 448 kts | 15° |
| 2026-04-18 04:53 | 32.15857 | -81.11232 | 37021 ft | 449 kts | 15° |
| 2026-04-18 04:54 | 32.21595 | -81.08382 | 37018 ft | 448 kts | 15° |
| 2026-04-18 04:54 | 32.27368 | -81.05512 | 37021 ft | 449 kts | 15° |
| 2026-04-18 04:55 | 32.33108 | -81.02653 | 37015 ft | 449 kts | 15° |
| 2026-04-18 04:55 | 32.38861 | -80.99786 | 37013 ft | 449 kts | 15° |
| 2026-04-18 04:56 | 32.47493 | -80.95476 | 37004 ft | 449 kts | 15° |
| 2026-04-18 04:56 | 32.53242 | -80.92599 | 37005 ft | 450 kts | 15° |
| 2026-04-18 04:57 | 32.59020 | -80.89703 | 37008 ft | 450 kts | 15° |
| 2026-04-18 04:57 | 32.64771 | -80.86816 | 36999 ft | 450 kts | 15° |
| 2026-04-18 04:58 | 32.70546 | -80.83916 | 37000 ft | 450 kts | 15° |
| 2026-04-18 04:58 | 32.76340 | -80.81002 | 36998 ft | 450 kts | 15° |
| 2026-04-18 04:59 | 32.82102 | -80.78097 | 36996 ft | 449 kts | 15° |
| 2026-04-18 04:59 | 32.87882 | -80.75183 | 37000 ft | 450 kts | 15° |
| 2026-04-18 05:00 | 32.93602 | -80.72292 | 37006 ft | 450 kts | 15° |
| 2026-04-18 05:00 | 32.99385 | -80.69367 | 37003 ft | 450 kts | 15° |
| 2026-04-18 05:01 | 33.05124 | -80.66460 | 37000 ft | 450 kts | 15° |
| 2026-04-18 05:01 | 33.10892 | -80.63533 | 36998 ft | 450 kts | 15° |
| 2026-04-18 05:02 | 33.16656 | -80.60603 | 36991 ft | 451 kts | 15° |
| 2026-04-18 05:02 | 33.22430 | -80.57664 | 36991 ft | 451 kts | 15° |
| 2026-04-18 05:03 | 33.28187 | -80.54729 | 36993 ft | 450 kts | 15° |
| 2026-04-18 05:03 | 33.33976 | -80.51774 | 36991 ft | 450 kts | 15° |
| 2026-04-18 05:04 | 33.39716 | -80.48839 | 36999 ft | 450 kts | 15° |
| 2026-04-18 05:04 | 33.45502 | -80.45985 | 36996 ft | 448 kts | 12° |
| 2026-04-18 05:05 | 33.51414 | -80.43768 | 36997 ft | 441 kts | 7° |
| 2026-04-18 05:05 | 33.57372 | -80.42060 | 36996 ft | 441 kts | 5° |
| 2026-04-18 05:06 | 33.63322 | -80.40404 | 36995 ft | 441 kts | 5° |
| 2026-04-18 05:06 | 33.69311 | -80.38731 | 36998 ft | 441 kts | 6° |
| 2026-04-18 05:07 | 33.75265 | -80.37060 | 36998 ft | 441 kts | 5° |
| 2026-04-18 05:07 | 33.81244 | -80.35382 | 37000 ft | 442 kts | 5° |
| 2026-04-18 05:08 | 33.87241 | -80.33695 | 37006 ft | 441 kts | 6° |
| 2026-04-18 05:08 | 33.93210 | -80.32014 | 37006 ft | 442 kts | 6° |
| 2026-04-18 05:09 | 33.99217 | -80.30318 | 37015 ft | 442 kts | 6° |
| 2026-04-18 05:09 | 34.05199 | -80.28627 | 37028 ft | 442 kts | 6° |
| 2026-04-18 05:10 | 34.11182 | -80.26935 | 37036 ft | 443 kts | 6° |
| 2026-04-18 05:10 | 34.17183 | -80.25234 | 37053 ft | 443 kts | 6° |
| 2026-04-18 05:11 | 34.23154 | -80.23538 | 37061 ft | 442 kts | 6° |
| 2026-04-18 05:11 | 34.29110 | -80.21579 | 36803 ft | 446 kts | 10° |
| 2026-04-18 05:12 | 34.32085 | -80.20435 | 36358 ft | 442 kts | 10° |
| 2026-04-18 05:12 | 34.34992 | -80.19297 | 35922 ft | 438 kts | 10° |
| 2026-04-18 05:12 | 34.37862 | -80.18172 | 35497 ft | 434 kts | 10° |
| 2026-04-18 05:12 | 34.40734 | -80.17046 | 35064 ft | 432 kts | 10° |
| 2026-04-18 05:13 | 34.43564 | -80.15939 | 34637 ft | 429 kts | 10° |
| 2026-04-18 05:13 | 34.46383 | -80.14835 | 34209 ft | 426 kts | 10° |
| 2026-04-18 05:13 | 34.49226 | -80.13722 | 33778 ft | 424 kts | 9° |
| 2026-04-18 05:13 | 34.52004 | -80.12636 | 33374 ft | 421 kts | 10° |
| 2026-04-18 05:14 | 34.54794 | -80.11546 | 32987 ft | 418 kts | 10° |
| 2026-04-18 05:14 | 34.57542 | -80.10470 | 32604 ft | 415 kts | 10° |
| 2026-04-18 05:14 | 34.60256 | -80.09405 | 32222 ft | 412 kts | 10° |
| 2026-04-18 05:14 | 34.62973 | -80.08340 | 31838 ft | 409 kts | 10° |
| 2026-04-18 05:15 | 34.65660 | -80.07285 | 31454 ft | 407 kts | 10° |
| 2026-04-18 05:15 | 34.68373 | -80.06219 | 31067 ft | 404 kts | 11° |
| 2026-04-18 05:15 | 34.71020 | -80.05180 | 30685 ft | 402 kts | 11° |
| 2026-04-18 05:15 | 34.73695 | -80.04129 | 30301 ft | 400 kts | 11° |
| 2026-04-18 05:16 | 34.76320 | -80.03096 | 29919 ft | 398 kts | 11° |
| 2026-04-18 05:16 | 34.78926 | -80.02069 | 29538 ft | 395 kts | 11° |
| 2026-04-18 05:16 | 34.81533 | -80.01041 | 29150 ft | 393 kts | 11° |
| 2026-04-18 05:16 | 34.84143 | -80.00012 | 28765 ft | 391 kts | 11° |
| 2026-04-18 05:17 | 34.86711 | -79.98998 | 28383 ft | 389 kts | 12° |
| 2026-04-18 05:17 | 34.89267 | -79.97988 | 27999 ft | 388 kts | 12° |
| 2026-04-18 05:17 | 34.91850 | -79.96967 | 27609 ft | 386 kts | 12° |
| 2026-04-18 05:17 | 34.94368 | -79.95971 | 27227 ft | 384 kts | 12° |
| 2026-04-18 05:18 | 34.96928 | -79.94958 | 26841 ft | 382 kts | 12° |
| 2026-04-18 05:18 | 34.99452 | -79.93958 | 26459 ft | 381 kts | 12° |
| 2026-04-18 05:18 | 35.01937 | -79.92974 | 26081 ft | 379 kts | 12° |
| 2026-04-18 05:18 | 35.04445 | -79.91980 | 25697 ft | 378 kts | 12° |
| 2026-04-18 05:19 | 35.06928 | -79.90995 | 25316 ft | 376 kts | 12° |
| 2026-04-18 05:19 | 35.09436 | -79.89998 | 24929 ft | 374 kts | 12° |
| 2026-04-18 05:19 | 35.11898 | -79.89020 | 24553 ft | 374 kts | 13° |
| 2026-04-18 05:19 | 35.14377 | -79.88035 | 24174 ft | 372 kts | 13° |
| 2026-04-18 05:20 | 35.16810 | -79.87066 | 23801 ft | 370 kts | 13° |
| 2026-04-18 05:20 | 35.19262 | -79.86091 | 23425 ft | 368 kts | 13° |
| 2026-04-18 05:20 | 35.21681 | -79.85126 | 23052 ft | 366 kts | 13° |
| 2026-04-18 05:20 | 35.24100 | -79.84161 | 22681 ft | 364 kts | 13° |
| 2026-04-18 05:21 | 35.26493 | -79.83208 | 22320 ft | 362 kts | 13° |
| 2026-04-18 05:21 | 35.28901 | -79.82247 | 21950 ft | 361 kts | 13° |
| 2026-04-18 05:21 | 35.31284 | -79.81297 | 21589 ft | 360 kts | 14° |
| 2026-04-18 05:21 | 35.33667 | -79.80345 | 21225 ft | 359 kts | 14° |
| 2026-04-18 05:22 | 35.36023 | -79.79403 | 20865 ft | 358 kts | 14° |
| 2026-04-18 05:22 | 35.38380 | -79.78460 | 20507 ft | 357 kts | 14° |
| 2026-04-18 05:22 | 35.40753 | -79.77509 | 20139 ft | 355 kts | 14° |
| 2026-04-18 05:22 | 35.43080 | -79.76577 | 19780 ft | 353 kts | 14° |
| 2026-04-18 05:23 | 35.45403 | -79.75646 | 19424 ft | 351 kts | 14° |
| 2026-04-18 05:23 | 35.47724 | -79.74714 | 19064 ft | 349 kts | 14° |
| 2026-04-18 05:23 | 35.50025 | -79.73789 | 18704 ft | 348 kts | 15° |
| 2026-04-18 05:23 | 35.52307 | -79.72873 | 18352 ft | 346 kts | 14° |
| 2026-04-18 05:24 | 35.54600 | -79.71951 | 17994 ft | 345 kts | 15° |
| 2026-04-18 05:24 | 35.56879 | -79.71036 | 17646 ft | 343 kts | 15° |
| 2026-04-18 05:24 | 35.59129 | -79.70130 | 17295 ft | 342 kts | 15° |
| 2026-04-18 05:24 | 35.61392 | -79.69220 | 16947 ft | 341 kts | 15° |
| 2026-04-18 05:25 | 35.63627 | -79.68320 | 16616 ft | 339 kts | 15° |
| 2026-04-18 05:25 | 35.65864 | -79.67416 | 16278 ft | 338 kts | 15° |
| 2026-04-18 05:25 | 35.68103 | -79.66514 | 15921 ft | 337 kts | 15° |
| 2026-04-18 05:25 | 35.70321 | -79.65617 | 15556 ft | 336 kts | 15° |
| 2026-04-18 05:26 | 35.72547 | -79.64717 | 15261 ft | 332 kts | 15° |
| 2026-04-18 05:26 | 35.74717 | -79.63840 | 15011 ft | 327 kts | 15° |
| 2026-04-18 05:26 | 35.76878 | -79.62966 | 14744 ft | 323 kts | 15° |
| 2026-04-18 05:26 | 35.79001 | -79.62161 | 14515 ft | 317 kts | 8° |
| 2026-04-18 05:27 | 35.81163 | -79.61984 | 14247 ft | 309 kts | 352° |
| 2026-04-18 05:27 | 35.83241 | -79.62550 | 13987 ft | 303 kts | 336° |
| 2026-04-18 05:27 | 35.85127 | -79.63647 | 13745 ft | 298 kts | 331° |
| 2026-04-18 05:27 | 35.86962 | -79.64835 | 13501 ft | 297 kts | 330° |
| 2026-04-18 05:28 | 35.88788 | -79.66026 | 13251 ft | 297 kts | 330° |
| 2026-04-18 05:28 | 35.90620 | -79.67213 | 13006 ft | 296 kts | 330° |
| 2026-04-18 05:28 | 35.92439 | -79.68384 | 12777 ft | 295 kts | 330° |
| 2026-04-18 05:28 | 35.94241 | -79.69540 | 12531 ft | 293 kts | 331° |
| 2026-04-18 05:29 | 35.96049 | -79.70699 | 12287 ft | 292 kts | 331° |
| 2026-04-18 05:29 | 35.97845 | -79.71848 | 12048 ft | 291 kts | 331° |
| 2026-04-18 05:29 | 35.99645 | -79.73000 | 11803 ft | 288 kts | 331° |
| 2026-04-18 05:29 | 36.01417 | -79.74135 | 11572 ft | 285 kts | 331° |
| 2026-04-18 05:30 | 36.03157 | -79.75249 | 11360 ft | 281 kts | 331° |
| 2026-04-18 05:30 | 36.04903 | -79.76367 | 11134 ft | 278 kts | 331° |
| 2026-04-18 05:30 | 36.06591 | -79.77449 | 10919 ft | 275 kts | 332° |
| 2026-04-18 05:30 | 36.08285 | -79.78535 | 10702 ft | 272 kts | 332° |
| 2026-04-18 05:31 | 36.09964 | -79.79612 | 10486 ft | 270 kts | 332° |
| 2026-04-18 05:31 | 36.11626 | -79.80677 | 10270 ft | 267 kts | 332° |
| 2026-04-18 05:31 | 36.13280 | -79.81739 | 10053 ft | 265 kts | 332° |
| 2026-04-18 05:31 | 36.14910 | -79.82784 | 9835 ft | 263 kts | 332° |
| 2026-04-18 05:32 | 36.16569 | -79.83712 | 9608 ft | 261 kts | 346° |
| 2026-04-18 05:32 | 36.18366 | -79.83779 | 9396 ft | 261 kts | 11° |
| 2026-04-18 05:32 | 36.20015 | -79.82914 | 9199 ft | 261 kts | 35° |
| 2026-04-18 05:32 | 36.21346 | -79.81382 | 8979 ft | 260 kts | 44° |
| 2026-04-18 05:33 | 36.22594 | -79.79768 | 8767 ft | 259 kts | 45° |
| 2026-04-18 05:33 | 36.23838 | -79.78153 | 8555 ft | 258 kts | 45° |
| 2026-04-18 05:33 | 36.25070 | -79.76560 | 8336 ft | 256 kts | 44° |
| 2026-04-18 05:33 | 36.26296 | -79.74981 | 8118 ft | 253 kts | 44° |
| 2026-04-18 05:34 | 36.27514 | -79.73419 | 7896 ft | 250 kts | 44° |
| 2026-04-18 05:34 | 36.28717 | -79.71877 | 7677 ft | 247 kts | 44° |
| 2026-04-18 05:34 | 36.29991 | -79.70502 | 7449 ft | 243 kts | 25° |
| 2026-04-18 05:34 | 36.31607 | -79.69983 | 7236 ft | 238 kts | 1° |
| 2026-04-18 05:35 | 36.33244 | -79.69992 | 7035 ft | 235 kts | 356° |
| 2026-04-18 05:35 | 36.34873 | -79.70071 | 6833 ft | 233 kts | 356° |
| 2026-04-18 05:35 | 36.36485 | -79.70126 | 6611 ft | 232 kts | 358° |
| 2026-04-18 05:35 | 36.38112 | -79.70152 | 6397 ft | 230 kts | 358° |
| 2026-04-18 05:36 | 36.39696 | -79.70161 | 6172 ft | 229 kts | 359° |
| 2026-04-18 05:36 | 36.41282 | -79.70032 | 5996 ft | 225 kts | 14° |
| 2026-04-18 05:36 | 36.42661 | -79.69179 | 5807 ft | 221 kts | 39° |
| 2026-04-18 05:36 | 36.43608 | -79.67727 | 5581 ft | 217 kts | 64° |
| 2026-04-18 05:37 | 36.44000 | -79.65951 | 5350 ft | 212 kts | 86° |
| 2026-04-18 05:37 | 36.43811 | -79.64178 | 5124 ft | 209 kts | 109° |
| 2026-04-18 05:37 | 36.43097 | -79.62638 | 4887 ft | 205 kts | 132° |
| 2026-04-18 05:37 | 36.41999 | -79.61571 | 4661 ft | 200 kts | 154° |
| 2026-04-18 05:38 | 36.40678 | -79.61094 | 4435 ft | 194 kts | 175° |
| 2026-04-18 05:38 | 36.39340 | -79.61052 | 4216 ft | 190 kts | 181° |
| 2026-04-18 05:38 | 36.38019 | -79.61092 | 3994 ft | 189 kts | 187° |
| 2026-04-18 05:38 | 36.36841 | -79.61716 | 3761 ft | 186 kts | 219° |
| 2026-04-18 05:39 | 36.35900 | -79.62817 | 3554 ft | 186 kts | 225° |
| 2026-04-18 05:39 | 36.35008 | -79.63944 | 3382 ft | 185 kts | 226° |
| 2026-04-18 05:39 | 36.34112 | -79.65092 | 3292 ft | 185 kts | 226° |
| 2026-04-18 05:39 | 36.33217 | -79.66237 | 3195 ft | 183 kts | 226° |
| 2026-04-18 05:40 | 36.32345 | -79.67349 | 3082 ft | 174 kts | 226° |
| 2026-04-18 05:40 | 36.31507 | -79.68417 | 2980 ft | 173 kts | 227° |
| 2026-04-18 05:40 | 36.30671 | -79.69482 | 2973 ft | 173 kts | 227° |
| 2026-04-18 05:40 | 36.29827 | -79.70556 | 2969 ft | 173 kts | 227° |
| 2026-04-18 05:41 | 36.28985 | -79.71627 | 2966 ft | 173 kts | 227° |
| 2026-04-18 05:41 | 36.28144 | -79.72696 | 2965 ft | 172 kts | 227° |
| 2026-04-18 05:41 | 36.27312 | -79.73754 | 2965 ft | 173 kts | 227° |
| 2026-04-18 05:41 | 36.26472 | -79.74822 | 2967 ft | 173 kts | 227° |
| 2026-04-18 05:42 | 36.25626 | -79.75898 | 2963 ft | 173 kts | 226° |
| 2026-04-18 05:42 | 36.24784 | -79.76969 | 2969 ft | 173 kts | 226° |
| 2026-04-18 05:42 | 36.23941 | -79.78042 | 2970 ft | 173 kts | 226° |
| 2026-04-18 05:42 | 36.23109 | -79.79102 | 2966 ft | 173 kts | 226° |
| 2026-04-18 05:43 | 36.22271 | -79.80167 | 2965 ft | 173 kts | 226° |
| 2026-04-18 05:43 | 36.21424 | -79.81246 | 2969 ft | 172 kts | 226° |
| 2026-04-18 05:43 | 36.20595 | -79.82302 | 2967 ft | 172 kts | 226° |
| 2026-04-18 05:43 | 36.19763 | -79.83362 | 2968 ft | 173 kts | 227° |
| 2026-04-18 05:44 | 36.18940 | -79.84410 | 2882 ft | 163 kts | 227° |
| 2026-04-18 05:44 | 36.18162 | -79.85401 | 2672 ft | 161 kts | 227° |
| 2026-04-18 05:44 | 36.17380 | -79.86399 | 2461 ft | 161 kts | 226° |
| 2026-04-18 05:44 | 36.16614 | -79.87376 | 2240 ft | 155 kts | 226° |
| 2026-04-18 05:45 | 36.15876 | -79.88320 | 2044 ft | 149 kts | 226° |
| 2026-04-18 05:45 | 36.15165 | -79.89223 | 1859 ft | 144 kts | 226° |
| 2026-04-18 05:45 | 36.14462 | -79.90115 | 1699 ft | 145 kts | 226° |
| 2026-04-18 05:45 | 36.13767 | -79.91000 | 1520 ft | 145 kts | 226° |
| 2026-04-18 05:46 | 36.13070 | -79.91893 | 1332 ft | 144 kts | 226° |
| 2026-04-18 05:46 | 36.12370 | -79.92784 | 1131 ft | 144 kts | 226° |
| 2026-04-18 05:46 | 36.11680 | -79.93669 | 916 ft | 142 kts | 226° |
| 2026-04-18 05:46 | 36.11019 | -79.94506 | 875 ft | 123 kts | 226° |
| 2026-04-18 05:47 | 36.10529 | -79.95134 | 877 ft | 75 kts | 227° |
| 2026-04-18 05:47 | 36.10293 | -79.95438 | 894 ft | 23 kts | 226° |
| 2026-04-18 05:47 | 36.10218 | -79.95533 | 903 ft | 12 kts | 226° |
| 2026-04-18 05:47 | 36.10166 | -79.95598 | 907 ft | 8 kts | 226° |
| 2026-04-18 05:48 | 36.10133 | -79.95619 | 908 ft | 5 kts | 186° |
| 2026-04-18 05:48 | 36.10093 | -79.95606 | 908 ft | 7 kts | 149° |
| 2026-04-18 05:48 | 36.10069 | -79.95546 | 906 ft | 10 kts | 77° |
| 2026-04-18 05:48 | 36.10103 | -79.95485 | 904 ft | 8 kts | 49° |
| 2026-04-18 05:49 | 36.10157 | -79.95416 | 898 ft | 14 kts | 45° |
| 2026-04-18 05:49 | 36.10215 | -79.95341 | 892 ft | 6 kts | 49° |
| 2026-04-18 05:49 | 36.10223 | -79.95270 | 890 ft | 9 kts | 126° |
| 2026-04-18 05:49 | 36.10173 | -79.95210 | 890 ft | 10 kts | 134° |
| 2026-04-18 05:50 | 36.10120 | -79.95144 | 893 ft | 10 kts | 135° |
| 2026-04-18 05:50 | 36.10070 | -79.95083 | 897 ft | 9 kts | 135° |
| 2026-04-18 05:50 | 36.10024 | -79.95028 | 901 ft | 8 kts | 136° |
| 2026-04-18 05:50 | 36.09978 | -79.94972 | 904 ft | 10 kts | 135° |
| 2026-04-18 05:51 | 36.09924 | -79.94905 | 907 ft | 11 kts | 135° |
| 2026-04-18 05:51 | 36.09861 | -79.94829 | 911 ft | 13 kts | 135° |
| 2026-04-18 05:51 | 36.09794 | -79.94746 | 913 ft | 14 kts | 135° |
| 2026-04-18 05:51 | 36.09723 | -79.94659 | 914 ft | 14 kts | 135° |
| 2026-04-18 05:52 | 36.09645 | -79.94564 | 914 ft | 17 kts | 135° |
| 2026-04-18 05:52 | 36.09570 | -79.94473 | 912 ft | 10 kts | 135° |
| 2026-04-18 05:52 | 36.09516 | -79.94406 | 912 ft | 11 kts | 135° |
| 2026-04-18 05:52 | 36.09478 | -79.94346 | 912 ft | 8 kts | 103° |
| 2026-04-18 05:53 | 36.09504 | -79.94276 | 911 ft | 10 kts | 50° |
| 2026-04-18 05:53 | 36.09563 | -79.94199 | 910 ft | 13 kts | 46° |
| 2026-04-18 05:53 | 36.09634 | -79.94108 | 908 ft | 16 kts | 46° |
| 2026-04-18 05:53 | 36.09718 | -79.94001 | 907 ft | 17 kts | 46° |
| 2026-04-18 05:54 | 36.09804 | -79.93890 | 906 ft | 18 kts | 45° |
| 2026-04-18 05:54 | 36.09897 | -79.93774 | 904 ft | 19 kts | 45° |
| 2026-04-18 05:54 | 36.09994 | -79.93651 | 902 ft | 20 kts | 46° |
| 2026-04-18 05:54 | 36.10063 | -79.93562 | 901 ft | 7 kts | 46° |
| 2026-04-18 05:55 | 36.10102 | -79.93524 | 901 ft | 7 kts | 15° |
| 2026-04-18 05:55 | 36.10151 | -79.93536 | 902 ft | 6 kts | 342° |
| 2026-04-18 05:55 | 36.10193 | -79.93527 | 903 ft | 6 kts | 27° |
| 2026-04-18 05:55 | 36.10238 | -79.93493 | 903 ft | 8 kts | 33° |
| 2026-04-18 05:56 | 36.10298 | -79.93463 | 902 ft | 10 kts | 18° |
| 2026-04-18 05:56 | 36.10366 | -79.93430 | 902 ft | 9 kts | 24° |
| 2026-04-18 05:56 | 36.10406 | -79.93407 | 901 ft | 6 kts | 25° |
| 2026-04-18 05:56 | 36.10420 | -79.93399 | 901 ft | 0 kts | 25° |